createdAt,value
2019-06-20T00:01:18.284Z,99370.88
2019-06-20T00:03:50.185Z,99364.28
2019-06-20T00:06:23.502Z,99365.11
2019-06-20T00:08:54.921Z,99369.09
2019-06-20T00:11:27.399Z,99361.63
2019-06-20T00:14:00.794Z,99364.61
2019-06-20T00:16:32.644Z,99369.48
2019-06-20T00:19:09.088Z,99374.31
2019-06-20T00:21:40.891Z,99376.52
2019-06-20T00:24:12.742Z,99373.40
2019-06-20T00:26:45.317Z,99373.96
2019-06-20T00:29:17.176Z,99375.23
2019-06-20T00:31:48.935Z,99378.73
2019-06-20T00:34:20.874Z,99377.44
2019-06-20T00:36:54.237Z,99374.66
2019-06-20T00:39:26.171Z,99382.83
2019-06-20T00:41:57.911Z,99386.24
2019-06-20T00:44:31.140Z,99382.08
2019-06-20T00:47:02.969Z,99383.17
2019-06-20T00:49:37.507Z,99383.09
2019-06-20T00:52:09.155Z,99388.99
2019-06-20T00:54:41.106Z,99385.67
2019-06-20T00:57:17.244Z,99374.13
2019-06-20T00:59:49.130Z,99383.69
2019-06-20T01:02:20.687Z,99390.67
2019-06-20T01:04:52.513Z,99385.45
2019-06-20T01:07:24.398Z,99384.87
2019-06-20T01:09:55.955Z,99384.52
2019-06-20T01:12:27.827Z,99384.71
2019-06-20T01:14:59.673Z,99391.58
2019-06-20T01:17:31.738Z,99396.07
2019-06-20T01:20:05.561Z,99394.77
2019-06-20T01:22:37.300Z,99390.09
2019-06-20T01:25:09.175Z,99387.66
2019-06-20T01:27:41.146Z,99388.12
2019-06-20T01:30:21.722Z,99395.44
2019-06-20T01:33:04.441Z,99398.73
2019-06-20T01:35:51.833Z,99396.55
2019-06-20T01:43:18.604Z,99402.23
2019-06-20T01:45:50.571Z,99403.61
2019-06-20T01:48:22.230Z,99404.02
2019-06-20T01:50:54.081Z,99409.78
2019-06-20T01:53:25.947Z,99407.66
2019-06-20T01:55:57.810Z,99414.00
2019-06-20T01:58:29.659Z,99420.02
2019-06-20T02:01:01.465Z,99416.52
2019-06-20T02:03:33.286Z,99418.12
2019-06-20T02:06:05.247Z,99418.18
2019-06-20T02:08:36.797Z,99417.66
2019-06-20T02:11:09.081Z,99418.52
2019-06-20T02:13:40.930Z,99417.74
2019-06-20T02:16:12.687Z,99422.95
2019-06-20T02:26:31.824Z,99419.92
2019-06-20T02:29:03.883Z,99422.72
2019-06-20T02:31:35.643Z,99418.06
2019-06-20T02:34:07.819Z,99424.70
2019-06-20T02:36:39.818Z,99426.37
2019-06-20T02:39:11.720Z,99424.77
2019-06-20T02:41:43.597Z,99425.67
2019-06-20T02:44:28.984Z,99423.55
2019-06-20T02:46:49.652Z,99415.75
2019-06-20T02:49:21.313Z,99422.22
2019-06-20T02:51:54.012Z,99428.08
2019-06-20T02:54:25.540Z,99426.88
2019-06-20T02:56:57.506Z,99425.97
2019-06-20T02:59:29.685Z,99426.64
2019-06-20T03:02:05.120Z,99427.84
2019-06-20T03:04:37.079Z,99424.76
2019-06-20T03:11:27.522Z,99428.05
2019-06-20T03:13:59.563Z,99429.87
2019-06-20T03:16:36.381Z,99430.61
2019-06-20T03:19:13.576Z,99427.09
2019-06-20T03:21:45.390Z,99435.28
2019-06-20T03:24:17.285Z,99438.09
2019-06-20T03:26:49.021Z,99432.56
2019-06-20T03:29:20.995Z,99425.84
2019-06-20T03:31:52.883Z,99430.59
2019-06-20T03:34:24.724Z,99436.67
2019-06-20T03:36:56.795Z,99429.63
2019-06-20T03:47:31.474Z,99426.83
2019-06-20T03:50:03.901Z,99423.92
2019-06-20T03:52:35.491Z,99423.27
2019-06-20T03:55:08.046Z,99422.55
2019-06-20T03:57:39.485Z,99420.83
2019-06-20T04:00:12.752Z,99419.20
2019-06-20T04:02:44.695Z,99429.79
2019-06-20T04:05:16.648Z,99424.40
2019-06-20T04:07:48.987Z,99421.08
2019-06-20T04:10:21.560Z,99424.28
2019-06-20T04:12:53.421Z,99423.44
2019-06-20T04:15:25.288Z,99424.32
2019-06-20T04:17:57.750Z,99426.44
2019-06-20T04:20:30.220Z,99426.50
2019-06-20T04:23:02.591Z,99430.10
2019-06-20T04:25:34.464Z,99427.47
2019-06-20T04:28:06.233Z,99422.88
2019-06-20T04:30:37.841Z,99423.14
2019-06-20T04:33:12.310Z,99426.33
2019-06-20T04:35:44.656Z,99421.24
2019-06-20T04:38:16.939Z,99422.02
2019-06-20T04:40:49.348Z,99424.30
2019-06-20T04:43:21.736Z,99422.20
2019-06-20T04:46:04.599Z,99418.85
2019-06-20T04:48:36.960Z,99419.62
2019-06-20T04:51:09.451Z,99416.02
2019-06-20T04:53:41.816Z,99414.83
2019-06-20T04:56:14.506Z,99412.11
2019-06-20T04:58:46.867Z,99415.78
2019-06-20T05:01:19.374Z,99418.54
2019-06-20T05:03:52.239Z,99420.41
2019-06-20T05:06:24.704Z,99415.38
2019-06-20T05:08:57.071Z,99413.96
2019-06-20T05:11:29.338Z,99418.45
2019-06-20T05:14:03.146Z,99423.09
2019-06-20T05:16:35.529Z,99419.52
2019-06-20T05:19:07.485Z,99422.27
2019-06-20T05:21:39.982Z,99422.69
2019-06-20T05:24:12.429Z,99419.11
2019-06-20T05:26:45.623Z,99423.88
2019-06-20T05:29:18.230Z,99431.55
2019-06-20T05:31:53.460Z,99422.40
2019-06-20T05:34:25.805Z,99426.02
2019-06-20T05:36:58.283Z,99424.36
2019-06-20T05:39:30.768Z,99418.72
2019-06-20T05:42:03.263Z,99423.91
2019-06-20T05:44:35.912Z,99424.02
2019-06-20T05:47:13.485Z,99425.76
2019-06-20T05:49:41.994Z,99432.25
2019-06-20T05:52:14.494Z,99425.34
2019-06-20T05:54:48.495Z,99430.19
2019-06-20T05:57:20.853Z,99425.41
2019-06-20T05:59:53.241Z,99428.81
2019-06-20T06:02:25.629Z,99429.91
2019-06-20T06:04:58.068Z,99425.30
2019-06-20T06:07:30.538Z,99422.02
2019-06-20T06:10:04.292Z,99417.09
2019-06-20T06:12:36.949Z,99419.29
2019-06-20T06:15:11.332Z,99423.65
2019-06-20T06:17:43.302Z,99414.00
2019-06-20T06:20:16.258Z,99423.81
2019-06-20T06:22:48.266Z,99417.13
2019-06-20T06:25:20.625Z,99423.59
2019-06-20T06:27:53.411Z,99418.66
2019-06-20T06:30:25.676Z,99427.00
2019-06-20T06:32:57.952Z,99420.08
2019-06-20T06:35:30.137Z,99421.45
2019-06-20T06:38:02.596Z,99412.61
2019-06-20T06:40:35.269Z,99415.59
2019-06-20T06:43:07.342Z,99418.48
2019-06-20T06:45:39.515Z,99417.49
2019-06-20T06:48:11.982Z,99425.83
2019-06-20T06:50:44.150Z,99419.43
2019-06-20T06:53:16.119Z,99415.03
2019-06-20T06:55:48.517Z,99416.64
2019-06-20T06:58:20.972Z,99410.00
2019-06-20T07:00:56.306Z,99415.13
2019-06-20T07:03:28.683Z,99413.16
2019-06-20T07:06:01.152Z,99410.03
2019-06-20T07:08:33.514Z,99413.05
2019-06-20T07:11:05.783Z,99416.39
2019-06-20T07:13:40.829Z,99407.83
2019-06-20T07:16:12.672Z,99413.08
2019-06-20T07:18:44.133Z,99406.94
2019-06-20T07:21:16.635Z,99408.95
2019-06-20T07:23:48.610Z,99408.70
2019-06-20T07:26:20.537Z,99408.50
2019-06-20T07:28:55.056Z,99404.88
2019-06-20T07:31:26.912Z,99402.73
2019-06-20T07:33:59.186Z,99402.49
2019-06-20T07:36:33.927Z,99398.94
2019-06-20T07:39:08.489Z,99407.30
2019-06-20T07:41:40.397Z,99401.39
2019-06-20T07:44:11.853Z,99402.56
2019-06-20T07:46:43.293Z,99398.89
2019-06-20T07:49:26.966Z,99399.95
2019-06-20T07:52:02.972Z,99399.91
2019-06-20T07:54:38.436Z,99396.30
2019-06-20T07:57:10.547Z,99393.08
2019-06-20T07:59:51.278Z,99390.04
2019-06-20T08:02:23.650Z,99391.61
2019-06-20T08:04:55.927Z,99389.22
2019-06-20T08:07:28.301Z,99380.30
2019-06-20T08:09:59.940Z,99380.56
2019-06-20T08:12:32.523Z,99385.40
2019-06-20T08:15:14.535Z,99387.73
2019-06-20T08:17:38.245Z,99380.71
2019-06-20T08:20:11.227Z,99374.58
2019-06-20T08:22:42.620Z,99372.39
2019-06-20T08:25:15.165Z,99367.95
2019-06-20T08:27:52.798Z,99373.84
2019-06-20T08:30:30.046Z,99379.47
2019-06-20T08:33:04.380Z,99376.89
2019-06-20T08:35:35.423Z,99377.09
2019-06-20T08:38:07.563Z,99380.75
2019-06-20T08:40:43.065Z,99380.56
2019-06-20T08:43:15.327Z,99387.87
2019-06-20T08:45:48.344Z,99378.30
2019-06-20T08:48:20.375Z,99373.72
2019-06-20T08:50:52.342Z,99373.17
2019-06-20T08:53:25.858Z,99376.89
2019-06-20T08:56:00.962Z,99375.50
2019-06-20T08:58:32.523Z,99378.53
2019-06-20T09:03:37.372Z,99371.83
2019-06-20T09:06:09.664Z,99375.42
2019-06-20T09:08:45.095Z,99377.13
2019-06-20T09:11:16.737Z,99372.66
2019-06-20T09:13:50.549Z,99370.00
2019-06-20T09:16:24.674Z,99370.94
2019-06-20T09:18:56.734Z,99383.55
2019-06-20T09:21:28.379Z,99378.20
2019-06-20T09:24:00.747Z,99375.56
2019-06-20T09:26:32.516Z,99371.70
2019-06-20T09:29:07.958Z,99371.70
2019-06-20T09:31:40.124Z,99374.08
2019-06-20T09:34:12.001Z,99359.02
2019-06-20T09:36:44.799Z,99355.91
2019-06-20T09:39:16.415Z,99363.09
2019-06-20T09:41:47.900Z,99372.93
2019-06-20T09:44:20.456Z,99365.48
2019-06-20T09:46:53.868Z,99359.77
2019-06-20T09:49:26.011Z,99361.91
2019-06-20T09:51:58.718Z,99363.69
2019-06-20T09:54:31.199Z,99367.75
2019-06-20T09:57:03.747Z,99366.47
2019-06-20T09:59:36.132Z,99367.20
2019-06-20T10:02:08.808Z,99363.80
2019-06-20T10:04:40.654Z,99358.73
2019-06-20T10:07:13.853Z,99363.71
2019-06-20T10:09:48.274Z,99372.77
2019-06-20T10:12:20.641Z,99366.63
2019-06-20T10:14:53.585Z,99359.02
2019-06-20T10:17:25.480Z,99360.63
2019-06-20T10:19:57.212Z,99359.67
2019-06-20T10:22:28.899Z,99356.41
2019-06-20T10:25:01.371Z,99352.66
2019-06-20T10:27:33.136Z,99352.34
2019-06-20T10:30:14.382Z,99348.78
2019-06-20T10:32:40.646Z,99334.43
2019-06-20T10:35:12.950Z,99346.13
2019-06-20T10:37:45.597Z,99348.20
2019-06-20T10:40:19.878Z,99349.16
2019-06-20T10:42:53.023Z,99345.23
2019-06-20T10:45:26.481Z,99354.73
2019-06-20T10:47:58.572Z,99347.06
2019-06-20T10:50:31.755Z,99352.28
2019-06-20T10:53:03.827Z,99347.67
2019-06-20T10:55:36.905Z,99350.00
2019-06-20T10:58:09.488Z,99343.68
2019-06-20T11:00:42.808Z,99349.91
2019-06-20T11:03:15.268Z,99345.98
2019-06-20T11:05:50.703Z,99350.27
2019-06-20T11:08:22.964Z,99344.38
2019-06-20T11:10:55.451Z,99348.47
2019-06-20T11:13:27.511Z,99347.56
2019-06-20T11:15:59.881Z,99344.30
2019-06-20T11:18:32.157Z,99348.11
2019-06-20T11:21:04.828Z,99354.19
2019-06-20T11:23:38.176Z,99348.97
2019-06-20T11:26:11.011Z,99349.29
2019-06-20T11:28:42.582Z,99350.20
2019-06-20T11:31:14.317Z,99345.16
2019-06-20T11:33:46.702Z,99338.02
2019-06-20T11:36:19.069Z,99341.94
2019-06-20T11:38:51.447Z,99343.08
2019-06-20T11:41:23.842Z,99341.34
2019-06-20T11:43:56.190Z,99348.19
2019-06-20T11:46:28.583Z,99344.06
2019-06-20T11:49:01.024Z,99341.92
2019-06-20T11:51:34.866Z,99343.07
2019-06-20T11:54:07.098Z,99335.18
2019-06-20T11:56:39.571Z,99335.28
2019-06-20T11:59:11.946Z,99333.34
2019-06-20T12:01:44.910Z,99339.55
2019-06-20T12:04:16.996Z,99340.70
2019-06-20T12:06:49.597Z,99337.66
2019-06-20T12:09:21.974Z,99343.36
2019-06-20T12:11:53.979Z,99341.61
2019-06-20T12:14:25.899Z,99329.23
2019-06-20T12:16:57.893Z,99324.97
2019-06-20T12:19:30.078Z,99330.45
2019-06-20T12:22:02.228Z,99332.52
2019-06-20T12:24:34.199Z,99328.27
2019-06-20T12:27:05.729Z,99325.23
2019-06-20T12:29:37.746Z,99319.47
2019-06-20T12:32:11.194Z,99326.80
2019-06-20T12:34:42.847Z,99318.91
2019-06-20T12:37:15.071Z,99321.47
2019-06-20T12:39:46.735Z,99321.23
2019-06-20T12:42:18.423Z,99315.09
2019-06-20T12:44:50.873Z,99317.58
2019-06-20T12:47:22.545Z,99304.64
2019-06-20T12:49:54.649Z,99315.33
2019-06-20T12:52:27.092Z,99307.40
2019-06-20T12:54:59.050Z,99305.59
2019-06-20T12:57:30.953Z,99305.31
2019-06-20T13:00:03.116Z,99305.23
2019-06-20T13:02:35.295Z,99304.12
2019-06-20T13:05:07.571Z,99308.91
2019-06-20T13:07:43.969Z,99304.03
2019-06-20T13:10:16.131Z,99298.52
2019-06-20T13:12:49.458Z,99303.53
2019-06-20T13:15:22.693Z,99302.67
2019-06-20T13:17:54.715Z,99300.61
2019-06-20T13:20:26.707Z,99298.23
2019-06-20T13:22:58.851Z,99293.13
2019-06-20T13:25:30.788Z,99291.87
2019-06-20T13:28:02.709Z,99285.44
2019-06-20T13:30:35.104Z,99295.84
2019-06-20T13:33:07.052Z,99283.09
2019-06-20T13:35:41.628Z,99287.00
2019-06-20T13:38:12.753Z,99280.84
2019-06-20T13:40:47.242Z,99284.28
2019-06-20T13:43:18.346Z,99290.30
2019-06-20T13:45:50.289Z,99282.05
2019-06-20T13:48:23.001Z,99278.83
2019-06-20T13:50:54.493Z,99272.48
2019-06-20T13:53:26.795Z,99286.28
2019-06-20T13:55:58.880Z,99276.04
2019-06-20T13:58:30.230Z,99271.27
2019-06-20T14:01:01.582Z,99270.68
2019-06-20T14:03:33.649Z,99275.56
2019-06-20T14:06:05.503Z,99275.35
2019-06-20T14:08:37.463Z,99270.53
2019-06-20T14:11:08.911Z,99274.16
2019-06-20T14:13:42.543Z,99274.61
2019-06-20T14:16:14.113Z,99269.83
2019-06-20T14:18:46.515Z,99271.11
2019-06-20T14:21:18.062Z,99273.19
2019-06-20T14:23:49.493Z,99280.76
2019-06-20T14:26:21.010Z,99276.83
2019-06-20T14:28:52.459Z,99278.27
2019-06-20T14:31:24.446Z,99287.92
2019-06-20T14:33:55.871Z,99290.75
2019-06-20T14:36:27.193Z,99295.58
2019-06-20T14:38:58.662Z,99289.58
2019-06-20T14:41:30.113Z,99297.34
2019-06-20T14:44:01.702Z,99296.48
2019-06-20T14:46:33.172Z,99291.60
2019-06-20T14:49:05.158Z,99300.54
2019-06-20T14:51:36.533Z,99299.04
2019-06-20T14:54:08.497Z,99297.39
2019-06-20T14:56:40.477Z,99299.08
2019-06-20T14:59:11.950Z,99296.64
2019-06-20T15:01:45.101Z,99296.20
2019-06-20T15:04:17.740Z,99300.39
2019-06-20T15:06:50.231Z,99297.20
2019-06-20T15:09:21.951Z,99295.19
2019-06-20T15:11:54.979Z,99290.58
2019-06-20T15:14:27.341Z,99301.84
2019-06-20T15:16:59.169Z,99295.56
2019-06-20T15:19:30.922Z,99296.24
2019-06-20T15:22:02.897Z,99289.99
2019-06-20T15:24:34.333Z,99301.38
2019-06-20T15:27:06.297Z,99298.04
2019-06-20T15:29:38.057Z,99306.95
2019-06-20T15:32:10.017Z,99298.00
2019-06-20T15:34:41.680Z,99302.88
2019-06-20T15:37:13.437Z,99299.06
2019-06-20T15:39:46.697Z,99299.06
2019-06-20T15:42:22.405Z,99297.56
2019-06-20T15:44:53.740Z,99297.88
2019-06-20T15:47:25.819Z,99297.59
2019-06-20T15:49:57.574Z,99302.00
2019-06-20T15:52:29.969Z,99294.26
2019-06-20T15:55:02.497Z,99295.45
2019-06-20T15:57:33.973Z,99304.82
2019-06-20T16:00:08.179Z,99294.49
2019-06-20T16:02:41.351Z,99303.88
2019-06-20T16:05:13.677Z,99298.69
2019-06-20T16:07:45.030Z,99293.19
2019-06-20T16:10:20.082Z,99293.90
2019-06-20T16:12:52.382Z,99288.95
2019-06-20T16:15:25.081Z,99287.98
2019-06-20T16:17:56.505Z,99297.15
2019-06-20T16:20:27.963Z,99290.55
2019-06-20T16:22:59.822Z,99295.90
2019-06-20T16:25:32.090Z,99295.14
2019-06-20T16:28:03.955Z,99293.82
2019-06-20T16:30:35.776Z,99293.67
2019-06-20T16:33:07.612Z,99289.24
2019-06-20T16:35:39.116Z,99299.41
2019-06-20T16:38:12.315Z,99298.95
2019-06-20T16:40:48.910Z,99298.27
2019-06-20T16:43:20.333Z,99300.67
2019-06-20T16:45:52.089Z,99298.28
2019-06-20T16:48:23.933Z,99302.84
2019-06-20T16:50:55.641Z,99303.50
2019-06-20T16:53:27.368Z,99301.95
2019-06-20T16:55:59.231Z,99309.08
2019-06-20T16:58:31.095Z,99316.59
2019-06-20T17:01:02.853Z,99314.55
2019-06-20T17:03:41.706Z,99317.05
2019-06-20T17:06:07.721Z,99319.49
2019-06-20T17:08:39.141Z,99318.97
2019-06-20T17:11:10.866Z,99318.34
2019-06-20T17:13:42.247Z,99320.36
2019-06-20T17:16:14.011Z,99320.17
2019-06-20T17:18:45.453Z,99313.97
2019-06-20T17:21:17.210Z,99309.72
2019-06-20T17:23:49.078Z,99311.92
2019-06-20T17:26:23.597Z,99315.86
2019-06-20T17:28:55.355Z,99324.80
2019-06-20T17:31:27.297Z,99321.27
2019-06-20T17:33:58.986Z,99324.30
2019-06-20T17:36:30.758Z,99324.89
2019-06-20T17:39:02.591Z,99323.97
2019-06-20T17:41:34.165Z,99320.03
2019-06-20T17:44:06.156Z,99322.36
2019-06-20T17:46:37.579Z,99331.66
2019-06-20T17:49:09.427Z,99330.83
2019-06-20T17:51:41.280Z,99333.98
2019-06-20T17:54:12.929Z,99336.65
2019-06-20T17:56:44.687Z,99334.87
2019-06-20T17:59:16.475Z,99332.16
2019-06-20T18:01:48.302Z,99333.86
2019-06-20T18:04:20.177Z,99326.58
2019-06-20T18:06:52.121Z,99336.20
2019-06-20T18:09:23.944Z,99332.13
2019-06-20T18:11:55.762Z,99340.19
2019-06-20T18:14:27.574Z,99345.37
2019-06-20T18:16:59.478Z,99343.78
2019-06-20T18:19:31.200Z,99352.02
2019-06-20T18:22:03.092Z,99345.98
2019-06-20T18:24:34.944Z,99349.26
2019-06-20T18:27:06.777Z,99347.31
2019-06-20T18:29:38.262Z,99348.52
2019-06-20T18:32:10.121Z,99349.88
2019-06-20T18:34:41.985Z,99354.33
2019-06-20T18:37:27.672Z,99355.98
2019-06-20T18:39:47.129Z,99358.25
2019-06-20T18:42:18.994Z,99360.19
2019-06-20T18:44:50.850Z,99357.16
2019-06-20T18:47:22.608Z,99362.92
2019-06-20T18:49:54.367Z,99365.16
2019-06-20T18:52:26.229Z,99356.75
2019-06-20T18:54:57.905Z,99362.78
2019-06-20T18:57:29.334Z,99357.83
2019-06-20T19:00:01.336Z,99364.67
2019-06-20T19:02:32.850Z,99364.17
2019-06-20T19:05:06.995Z,99365.87
2019-06-20T19:07:38.519Z,99363.42
2019-06-20T19:10:11.227Z,99363.67
2019-06-20T19:12:42.644Z,99361.80
2019-06-20T19:15:15.537Z,99366.70
2019-06-20T19:17:47.396Z,99362.59
2019-06-20T19:20:20.606Z,99359.88
2019-06-20T19:22:52.043Z,99363.16
2019-06-20T19:25:23.799Z,99363.45
2019-06-20T19:27:55.655Z,99361.23
2019-06-20T19:30:33.180Z,99362.08
2019-06-20T19:33:05.022Z,99362.11
2019-06-20T19:35:36.778Z,99352.29
2019-06-20T19:38:08.328Z,99364.34
2019-06-20T19:40:43.164Z,99369.23
2019-06-20T19:43:14.802Z,99364.61
2019-06-20T19:45:46.567Z,99364.88
2019-06-20T19:48:18.219Z,99363.53
2019-06-20T19:50:49.665Z,99365.70
2019-06-20T19:53:21.937Z,99370.66
2019-06-20T19:55:53.794Z,99369.27
2019-06-20T19:58:25.697Z,99370.11
2019-06-20T20:00:58.200Z,99373.63
2019-06-20T20:03:30.261Z,99361.90
2019-06-20T20:06:01.767Z,99375.55
2019-06-20T20:08:33.508Z,99375.28
2019-06-20T20:11:05.500Z,99379.59
2019-06-20T20:13:37.229Z,99368.42
2019-06-20T20:16:09.086Z,99368.42
2019-06-20T20:18:41.253Z,99379.39
2019-06-20T20:21:13.021Z,99379.39
2019-06-20T20:23:44.921Z,99386.41
2019-06-20T20:26:16.729Z,99386.41
2019-06-20T20:28:48.502Z,99393.77
2019-06-20T20:31:23.016Z,99393.77
2019-06-20T20:34:02.248Z,99401.16
2019-06-20T20:36:36.613Z,99400.03
2019-06-20T20:39:08.728Z,99398.64
2019-06-20T20:41:40.343Z,99398.64
2019-06-20T20:44:12.145Z,99409.28
2019-06-20T20:46:44.062Z,99410.08
2019-06-20T20:49:18.556Z,99411.98
2019-06-20T20:51:50.295Z,99413.08
2019-06-20T20:54:26.186Z,99417.98
2019-06-20T20:57:18.518Z,99423.38
2019-06-20T20:59:53.103Z,99418.19
2019-06-20T21:02:24.804Z,99415.70
2019-06-20T21:04:58.983Z,99432.95
2019-06-20T21:07:30.526Z,99425.57
2019-06-20T21:10:02.083Z,99429.92
2019-06-20T21:12:33.941Z,99439.17
2019-06-20T21:15:09.271Z,99440.43
2019-06-20T21:17:40.632Z,99446.07
2019-06-20T21:20:12.657Z,99449.14
2019-06-20T21:22:44.167Z,99446.15
2019-06-20T21:25:16.325Z,99452.62
2019-06-20T21:27:48.076Z,99459.21
2019-06-20T21:30:24.070Z,99455.66
2019-06-20T21:32:58.980Z,99458.67
2019-06-20T21:35:30.408Z,99464.13
2019-06-20T21:38:05.023Z,99460.98
2019-06-20T21:40:36.490Z,99460.98
2019-06-20T21:43:08.171Z,99460.45
2019-06-20T21:45:39.899Z,99465.00
2019-06-20T21:48:13.911Z,99470.72
2019-06-20T21:50:45.988Z,99483.02
2019-06-20T21:53:20.514Z,99473.88
2019-06-20T21:55:55.048Z,99469.73
2019-06-20T21:58:26.472Z,99467.53
2019-06-20T22:01:00.428Z,99472.95
2019-06-20T22:03:35.409Z,99474.84
2019-06-20T22:06:20.219Z,99474.31
2019-06-20T22:08:40.445Z,99472.58
2019-06-20T22:11:11.915Z,99477.71
2019-06-20T22:13:45.438Z,99468.35
2019-06-20T22:16:17.380Z,99465.36
2019-06-20T22:18:50.469Z,99463.47
2019-06-20T22:21:22.752Z,99463.26
2019-06-20T22:23:55.004Z,99470.38
2019-06-20T22:26:26.354Z,99468.13
2019-06-20T22:29:02.064Z,99471.11
2019-06-20T22:31:34.273Z,99468.66
2019-06-20T22:34:06.035Z,99463.48
2019-06-20T22:36:40.590Z,99463.30
2019-06-20T22:39:11.086Z,99461.98
2019-06-20T22:41:46.459Z,99461.70
2019-06-20T22:44:17.892Z,99458.90
2019-06-20T22:46:49.739Z,99453.53
2019-06-20T22:49:21.606Z,99461.09
2019-06-20T22:51:53.573Z,99455.87
2019-06-20T22:54:25.337Z,99462.67
2019-06-20T22:56:56.972Z,99456.92
2019-06-20T22:59:28.735Z,99457.63
2019-06-20T23:02:00.590Z,99459.77
2019-06-20T23:04:32.501Z,99461.91
2019-06-20T23:07:04.004Z,99464.48
2019-06-20T23:09:40.777Z,99463.06
2019-06-20T23:12:12.436Z,99466.38
2019-06-20T23:14:44.834Z,99463.31
2019-06-20T23:17:16.571Z,99464.67
2019-06-20T23:19:48.729Z,99463.02
2019-06-20T23:22:21.222Z,99462.38
2019-06-20T23:24:52.965Z,99462.56
2019-06-20T23:27:24.824Z,99464.83
2019-06-20T23:29:56.286Z,99467.02
2019-06-20T23:32:28.141Z,99465.34
2019-06-20T23:35:02.649Z,99462.55
2019-06-20T23:37:34.110Z,99464.95
2019-06-20T23:40:10.229Z,99469.45
2019-06-20T23:42:41.719Z,99463.62
2019-06-20T23:45:13.730Z,99468.55
2019-06-20T23:47:45.438Z,99468.52
2019-06-20T23:50:20.479Z,99473.11
2019-06-20T23:53:03.086Z,99471.42
2019-06-20T23:55:34.848Z,99477.78
2019-06-20T23:58:06.710Z,99484.81
